Time;durP1;ratioP1;P1;durP2;ratioP2;P2;SDS_P1;SDS_P2;PMS_P1;PMS_P2;Temp;Humidity;BMP_temperature;BMP_pressure;BME280_temperature;BME280_humidity;BME280_pressure;Samples;Min_cycle;Max_cycle;Signal;HPM_P1;HPM_P2
2023/10/14 00:01:13;;;;;;;9.55;3.95;;;;;;;16.59;50.19;100044.09;6307834;22;20011;-83
2023/10/14 00:03:45;;;;;;;;;;;;;;;17.10;49.42;100115.19;6307636;22;20337;-83
2023/10/14 00:06:12;;;;;;;10.88;4.25;;;;;;;16.60;49.96;100061.81;6307584;22;19956;-83
2023/10/14 00:08:59;;;;;;;5.85;3.28;;;;;;;16.46;49.68;100052.50;6307035;22;20007;-82
2023/10/14 00:11:40;;;;;;;8.30;4.50;;;;;;;16.28;50.11;100023.81;6307691;22;20003;-83
2023/10/14 00:14:15;;;;;;;7.97;4.38;;;;;;;16.44;50.36;100058.81;6306916;22;20054;-83
2023/10/14 00:16:51;;;;;;;15.90;4.38;;;;;;;16.46;50.20;100062.28;6307198;22;19999;-83
2023/10/14 00:19:37;;;;;;;11.20;4.72;;;;;;;16.26;49.93;99999.06;6307121;22;20077;-86
2023/10/14 00:22:05;;;;;;;14.48;5.05;;;;;;;16.32;50.06;100016.63;6307819;22;20003;-83
2023/10/14 00:24:31;;;;;;;12.10;4.70;;;;;;;16.08;49.94;100008.53;6305592;22;20442;-83
2023/10/14 00:26:57;;;;;;;10.13;4.88;;;;;;;16.39;49.75;100040.34;6308239;22;20003;-83
2023/10/14 00:29:23;;;;;;;14.45;6.00;;;;;;;16.35;50.27;100044.00;6280187;22;20050;-83
2023/10/14 00:31:50;;;;;;;10.80;4.47;;;;;;;16.20;50.10;100015.25;6306727;22;20026;-84
2023/10/14 00:34:22;;;;;;;14.90;4.03;;;;;;;16.43;49.48;100022.47;6307821;22;20090;-84
2023/10/14 00:36:53;;;;;;;8.00;4.97;;;;;;;16.26;49.46;100007.91;6307024;22;20496;-83
2023/10/14 00:39:28;;;;;;;7.50;4.82;;;;;;;16.34;50.23;100042.25;6307128;22;20032;-84
2023/10/14 00:41:55;;;;;;;9.20;4.68;;;;;;;16.10;50.02;100031.50;6307368;22;20076;-84
2023/10/14 00:44:26;;;;;;;9.95;4.32;;;;;;;16.07;50.98;100039.59;6307078;22;20056;-83
2023/10/14 00:46:55;;;;;;;8.45;4.43;;;;;;;16.00;51.19;100029.19;6307113;22;20450;-83
2023/10/14 00:49:31;;;;;;;14.07;4.55;;;;;;;16.06;51.48;100026.34;6307621;22;20010;-84
2023/10/14 00:52:18;;;;;;;15.57;5.38;;;;;;;15.94;51.54;100016.94;6280494;22;20003;-83
2023/10/14 00:59:50;;;;;;;9.70;4.55;;;;;;;15.70;51.24;99968.06;6305335;22;20003;-84
2023/10/14 01:02:29;;;;;;;7.47;3.92;;;;;;;15.66;51.42;99977.03;6305802;22;20010;-84
2023/10/14 01:04:54;;;;;;;10.52;4.63;;;;;;;15.86;51.58;100019.00;6305327;22;20034;-84
2023/10/14 01:07:21;;;;;;;9.15;4.72;;;;;;;15.86;51.89;100019.84;6306262;22;20000;-85
2023/10/14 01:09:53;;;;;;;9.10;4.13;;;;;;;15.84;51.70;99996.91;6306009;22;20015;-83
2023/10/14 01:15:13;;;;;;;8.98;4.18;;;;;;;15.62;51.89;99997.53;6305524;22;20014;-84
2023/10/14 01:17:41;;;;;;;7.38;3.50;;;;;;;15.51;51.73;99981.91;6305620;22;20004;-84
2023/10/14 01:22:44;;;;;;;8.30;4.07;;;;;;;15.44;52.72;99983.00;6305320;22;20373;-83
2023/10/14 01:25:15;;;;;;;6.43;3.55;;;;;;;15.51;52.59;99962.44;6277612;22;20331;-83
2023/10/14 01:27:44;;;;;;;7.35;3.97;;;;;;;15.59;52.60;99992.31;6278752;22;20015;-83
2023/10/14 01:30:18;;;;;;;8.05;2.85;;;;;;;15.18;52.76;99928.00;6305386;22;20118;-83
2023/10/14 01:35:13;;;;;;;7.68;3.90;;;;;;;15.22;53.10;99980.13;6305548;22;20037;-83
2023/10/14 01:37:45;;;;;;;10.05;4.18;;;;;;;15.00;53.16;99926.78;6305422;22;20007;-83
2023/10/14 01:43:05;;;;;;;9.73;4.13;;;;;;;14.89;53.15;99915.56;6305440;22;20018;-82
2023/10/14 01:45:32;;;;;;;8.68;3.90;;;;;;;15.10;53.25;99978.69;6281399;22;20334;-82
2023/10/14 01:50:46;;;;;;;9.43;3.13;;;;;;;15.08;53.25;99977.03;6305553;22;20004;-82
2023/10/14 01:53:17;;;;;;;9.52;4.00;;;;;;;14.92;53.76;99955.31;6305002;22;20061;-82
2023/10/14 01:55:43;;;;;;;8.90;4.70;;;;;;;14.86;53.87;99981.16;6277881;22;20003;-82
2023/10/14 02:00:56;;;;;;;6.25;3.40;;;;;;;14.71;54.32;99973.63;6305029;22;20381;-83
2023/10/14 02:03:23;;;;;;;11.73;3.72;;;;;;;15.05;54.39;100012.50;6302684;22;20086;-83
2023/10/14 02:05:52;;;;;;;13.52;4.60;;;;;;;14.79;53.55;99947.72;6305043;22;20007;-81
2023/10/14 02:08:22;;;;;;;9.20;4.32;;;;;;;14.97;53.88;100001.25;6303538;22;20090;-83
2023/10/14 02:10:54;;;;;;;8.90;3.50;;;;;;;14.97;53.99;99991.47;6277169;22;20010;-84
2023/10/14 02:13:22;;;;;;;11.80;3.78;;;;;;;14.93;53.82;99987.16;6304300;22;19999;-82
2023/10/14 02:15:51;;;;;;;9.20;4.55;;;;;;;14.86;54.27;99990.91;6304394;22;20011;-83
2023/10/14 02:18:22;;;;;;;7.65;4.57;;;;;;;14.65;54.71;99979.09;6304520;22;20004;-82
2023/10/14 02:21:04;;;;;;;9.77;4.05;;;;;;;14.70;54.25;99989.59;6305150;22;19999;-83
2023/10/14 02:23:43;;;;;;;6.38;3.90;;;;;;;14.44;54.17;99920.34;6304588;22;20509;-83
2023/10/14 02:26:32;;;;;;;9.40;4.25;;;;;;;14.99;54.06;100029.47;6304987;22;20026;-84
2023/10/14 02:28:58;;;;;;;8.07;3.50;;;;;;;14.53;54.22;99977.59;6305218;22;20371;-83
2023/10/14 02:33:57;;;;;;;9.82;4.60;;;;;;;14.13;54.86;99934.44;6304538;22;20060;-83
2023/10/14 02:36:34;;;;;;;8.10;4.25;;;;;;;14.45;54.85;99995.53;6304745;22;20920;-82
2023/10/14 02:39:00;;;;;;;15.68;4.32;;;;;;;14.42;55.01;99998.25;6304822;22;20080;-82
2023/10/14 02:41:26;;;;;;;23.67;4.78;;;;;;;14.38;55.54;99951.47;6305245;22;20003;-82
2023/10/14 02:44:30;;;;;;;5.32;3.10;;;;;;;14.14;55.43;99960.03;6304032;22;20453;-82
2023/10/14 02:46:47;;;;;;;;;;;;;;;14.53;55.24;100029.81;6299911;22;19999;-82
2023/10/14 02:49:18;;;;;;;8.85;3.70;;;;;;;14.51;54.36;99998.88;6304542;22;20349;-81
2023/10/14 02:51:45;;;;;;;6.75;4.05;;;;;;;13.96;54.67;99950.75;6304478;22;20023;-83
2023/10/14 02:54:36;;;;;;;6.20;3.67;;;;;;;14.17;54.15;99990.91;6304702;22;20010;-82
2023/10/14 02:57:12;;;;;;;9.05;4.18;;;;;;;13.79;55.14;99937.91;6303059;22;20331;-82
2023/10/14 03:02:25;;;;;;;6.68;4.25;;;;;;;13.99;55.96;99992.22;6304515;22;20007;-83
2023/10/14 03:07:43;;;;;;;9.50;4.43;;;;;;;13.67;56.77;99962.06;6304467;22;20003;-83
2023/10/14 03:12:39;;;;;;;6.28;3.75;;;;;;;13.55;56.74;99970.31;6304837;22;20003;-83
2023/10/14 03:15:19;;;;;;;6.47;4.00;;;;;;;13.67;56.07;99962.06;6304807;22;20363;-83
2023/10/14 03:17:58;;;;;;;11.50;4.30;;;;;;;13.51;55.72;99960.69;6304567;22;20350;-83
2023/10/14 03:22:58;;;;;;;6.97;3.97;;;;;;;13.49;56.47;99995.16;6304010;22;20067;-82
2023/10/14 03:25:23;;;;;;;21.25;5.38;;;;;;;13.63;57.00;100008.09;6303752;22;20032;-81
2023/10/14 03:27:59;;;;;;;7.22;4.57;;;;;;;13.55;56.31;99979.13;6304322;22;20089;-80
2023/10/14 03:30:26;;;;;;;15.07;4.10;;;;;;;13.45;56.67;99984.66;6303849;22;20007;-80
2023/10/14 03:32:52;;;;;;;16.20;4.30;;;;;;;13.39;56.35;99954.75;6304014;22;20003;-80
2023/10/14 03:35:21;;;;;;;;;;;;;;;13.78;57.68;100034.28;6303827;22;20555;-81
2023/10/14 03:37:53;;;;;;;9.93;3.58;;;;;;;13.28;57.30;99940.81;6304356;22;19907;-80
2023/10/14 03:43:10;;;;;;;9.13;3.75;;;;;;;13.16;57.56;99933.16;6303999;22;20014;-80
2023/10/14 03:45:47;;;;;;;13.73;4.43;;;;;;;13.53;57.85;100017.16;6304117;22;20060;-80
2023/10/14 03:48:13;;;;;;;14.27;4.07;;;;;;;13.28;58.38;99980.56;6304356;22;20011;-80
2023/10/14 03:50:39;;;;;;;;;;;;;;;13.77;58.22;100035.16;6305146;22;20030;-80
2023/10/14 03:53:05;;;;;;;8.60;3.70;;;;;;;13.81;58.42;100051.00;6303832;22;20037;-82
2023/10/14 03:55:32;;;;;;;15.48;4.63;;;;;;;13.24;58.79;99961.22;6302839;22;20380;-82
2023/10/14 03:58:03;;;;;;;21.88;4.55;;;;;;;13.23;58.74;99953.31;6304318;22;20011;-80
2023/10/14 04:00:50;;;;;;;7.35;3.80;;;;;;;13.13;58.08;99944.69;6304201;22;20090;-82
2023/10/14 04:03:29;;;;;;;12.18;4.18;;;;;;;13.35;58.42;99962.81;6275505;22;20438;-81
2023/10/14 04:05:59;;;;;;;15.73;4.80;;;;;;;13.39;57.77;99975.97;6276633;22;20007;-82
2023/10/14 04:08:30;;;;;;;9.30;4.68;;;;;;;13.41;57.86;99984.72;6304140;22;20006;-81
2023/10/14 04:11:14;;;;;;;6.68;4.68;;;;;;;13.30;57.61;99941.69;6304149;22;19999;-82
2023/10/14 04:13:52;;;;;;;6.05;4.25;;;;;;;13.18;58.39;99931.34;6303933;22;20338;-82
2023/10/14 04:16:27;;;;;;;7.88;4.35;;;;;;;13.12;58.68;99944.72;6277007;22;20027;-81
2023/10/14 04:18:59;;;;;;;17.13;4.38;;;;;;;13.19;57.89;99939.28;6303681;22;20003;-81
2023/10/14 04:21:34;;;;;;;8.00;4.80;;;;;;;13.18;58.54;99965.78;6276689;22;20464;-82
2023/10/14 04:24:09;;;;;;;13.07;4.50;;;;;;;13.23;58.68;99970.06;6303758;22;20003;-80
2023/10/14 04:26:35;;;;;;;14.93;4.05;;;;;;;13.08;58.37;99951.84;6303835;22;20003;-83
2023/10/14 04:29:03;;;;;;;24.77;4.93;;;;;;;13.18;58.72;99982.53;6304102;22;20007;-81
2023/10/14 04:31:41;;;;;;;7.85;4.38;;;;;;;13.17;58.50;99972.84;6303934;22;20019;-81
2023/10/14 04:34:15;;;;;;;29.60;4.20;;;;;;;13.28;58.91;99963.81;6302123;22;20011;-81
2023/10/14 04:37:07;;;;;;;11.38;4.53;;;;;;;13.29;58.75;100006.16;6304780;22;20094;-80
2023/10/14 04:39:28;;;;;;;8.43;4.00;;;;;;;13.06;59.13;99969.56;6304204;22;20004;-79
2023/10/14 04:44:55;;;;;;;9.52;4.93;;;;;;;12.98;58.84;99935.28;6240911;23;20000;-81
2023/10/14 04:47:47;;;;;;;14.20;4.15;;;;;;;13.01;58.41;99945.81;6240115;23;20027;-80
2023/10/14 04:50:21;;;;;;;24.13;4.30;;;;;;;13.11;59.05;99994.16;6239145;23;20476;-81
2023/10/14 04:52:49;;;;;;;10.93;4.80;;;;;;;13.11;59.23;99993.31;6239257;23;20039;-80
2023/10/14 04:55:28;;;;;;;8.43;3.75;;;;;;;13.14;59.17;99950.84;6240612;23;20012;-80
2023/10/14 04:58:15;;;;;;;13.93;3.35;;;;;;;13.29;58.95;99992.06;6240232;23;20455;-81
2023/10/14 05:00:47;;;;;;;15.70;3.92;;;;;;;13.28;58.92;99956.72;6240175;23;20439;-80
2023/10/14 05:03:14;;;;;;;16.02;3.83;;;;;;;13.54;59.11;100016.25;6240298;23;20012;-81
2023/10/14 05:05:49;;;;;;;18.20;4.40;;;;;;;13.47;59.47;99975.78;6240496;23;20030;-82
2023/10/14 05:08:21;;;;;;;9.93;3.27;;;;;;;13.52;59.33;99991.59;6240056;23;20004;-82
2023/10/14 05:10:51;;;;;;;10.15;4.45;;;;;;;13.43;59.32;99995.28;6240272;23;20386;-81
2023/10/14 05:13:19;;;;;;;8.15;3.50;;;;;;;13.68;59.62;100011.50;6240267;23;20039;-81
2023/10/14 05:15:53;;;;;;;8.30;3.58;;;;;;;13.65;58.78;100006.28;6240614;23;20012;-80
2023/10/14 05:18:28;;;;;;;11.30;3.33;;;;;;;13.76;58.97;100020.19;6240353;23;20091;-80
2023/10/14 05:23:53;;;;;;;5.10;3.30;;;;;;;13.61;60.22;100000.19;6179605;23;20272;-80
2023/10/14 05:26:27;;;;;;;22.33;4.20;;;;;;;13.82;59.95;100021.81;6179732;23;20015;-82
2023/10/14 05:28:54;;;;;;;;;;;;;;;14.27;59.89;100060.53;6179881;23;20045;-81
2023/10/14 05:31:20;;;;;;;7.88;4.30;;;;;;;13.81;60.04;99997.97;6178945;23;19919;-82
2023/10/14 05:33:48;;;;;;;;;;;;;;;14.36;59.52;100057.66;6179658;23;20923;-80
2023/10/14 05:36:14;;;;;;;14.75;3.58;;;;;;;13.85;59.17;99973.13;6178443;23;19979;-80
2023/10/14 05:38:41;;;;;;;14.23;5.10;;;;;;;14.08;59.65;99999.09;6179624;23;20506;-80
2023/10/14 05:41:11;;;;;;;18.05;5.80;;;;;;;14.06;59.46;99980.56;6178790;23;20531;-81
2023/10/14 05:43:37;;;;;;;11.57;4.60;;;;;;;14.23;59.64;100008.47;6178669;23;20531;-80
2023/10/14 05:46:12;;;;;;;14.20;4.40;;;;;;;14.54;58.82;99989.97;6176849;23;20128;-80
2023/10/14 05:48:37;;;;;;;28.73;6.32;;;;;;;14.71;58.21;99978.94;6179358;23;20380;-81
2023/10/14 05:51:03;;;;;;;;;;;;;;;15.63;57.80;100067.53;6179141;23;20108;-81
2023/10/14 05:53:31;;;;;;;16.92;4.72;;;;;;;15.54;57.30;100004.91;6178483;23;19986;-83
2023/10/14 05:55:58;;;;;;;24.17;5.57;;;;;;;15.94;55.49;100035.56;6178900;23;20551;-80
2023/10/14 05:58:28;;;;;;;27.67;5.43;;;;;;;15.96;54.80;100009.81;6178418;23;20043;-81
2023/10/14 06:00:55;;;;;;;39.20;6.45;;;;;;;16.39;53.74;100026.13;6271927;22;20011;-80
2023/10/14 06:03:20;;;;;;;21.63;4.22;;;;;;;16.86;53.19;100031.66;6300450;22;20007;-80
2023/10/14 06:05:46;;;;;;;27.42;4.63;;;;;;;17.12;51.78;100013.84;6300401;22;20006;-81
2023/10/14 06:08:17;;;;;;;20.90;5.00;;;;;;;17.19;50.82;99988.69;6300405;22;20433;-80
2023/10/14 06:10:43;;;;;;;8.98;2.95;;;;;;;17.42;48.63;100018.97;6300297;22;20031;-81
2023/10/14 06:13:10;;;;;;;11.05;3.65;;;;;;;17.71;47.96;100032.03;6300816;22;19999;-81
2023/10/14 06:15:39;;;;;;;14.48;5.05;;;;;;;17.78;47.70;99984.66;6302251;22;20025;-81
2023/10/14 06:18:05;;;;;;;7.95;2.65;;;;;;;18.20;46.42;99986.50;6301205;22;20068;-81
2023/10/14 06:20:35;;;;;;;8.18;3.60;;;;;;;18.64;45.93;100011.41;6301342;22;20003;-81
2023/10/14 06:23:00;;;;;;;6.63;2.88;;;;;;;19.04;45.05;100017.69;6300648;22;20488;-81
2023/10/14 06:25:29;;;;;;;9.15;2.78;;;;;;;18.85;44.26;99961.53;6304448;22;20037;-82
2023/10/14 06:27:55;;;;;;;4.55;2.42;;;;;;;18.51;44.87;99968.31;6276648;22;20015;-81
2023/10/14 06:30:21;;;;;;;5.55;3.15;;;;;;;18.74;45.24;99975.34;6304785;22;20007;-82
2023/10/14 06:32:48;;;;;;;4.78;2.10;;;;;;;18.99;44.38;99961.75;6304303;22;20008;-83
2023/10/14 06:35:17;;;;;;;13.18;3.63;;;;;;;19.51;44.69;99998.59;6304887;22;20003;-83
2023/10/14 06:37:46;;;;;;;12.07;2.78;;;;;;;19.44;42.77;99976.59;6304535;22;20090;-83
2023/10/14 06:40:18;;;;;;;7.70;2.72;;;;;;;19.70;43.78;99993.22;6304678;22;20003;-84
2023/10/14 06:42:45;;;;;;;5.55;2.97;;;;;;;19.59;43.11;99979.50;6302542;22;20400;-84
2023/10/14 06:45:14;;;;;;;5.70;2.28;;;;;;;19.37;43.52;99947.53;6302578;22;20003;-81
2023/10/14 06:47:56;;;;;;;7.47;3.47;;;;;;;19.78;44.01;100065.16;6303987;22;20007;-83
2023/10/14 06:50:25;;;;;;;5.85;3.70;;;;;;;19.27;44.25;99961.34;6303659;22;20362;-82
2023/10/14 06:53:01;;;;;;;7.63;2.25;;;;;;;19.80;44.06;100012.41;6275436;22;20346;-82
2023/10/14 06:55:37;;;;;;;;;;;;;;;19.71;43.59;100043.13;6304151;22;20203;-82
2023/10/14 06:58:05;;;;;;;6.90;2.72;;;;;;;19.10;44.16;99963.94;6302624;22;19993;-81
2023/10/14 07:00:32;;;;;;;8.43;3.20;;;;;;;19.57;44.35;99978.69;6303917;22;20307;-81
2023/10/14 07:02:59;;;;;;;7.55;2.67;;;;;;;19.66;43.97;99970.22;6275713;22;20102;-82
2023/10/14 07:05:26;;;;;;;9.00;3.88;;;;;;;19.93;43.58;99993.97;6303170;22;20007;-83
2023/10/14 07:07:52;;;;;;;6.57;3.42;;;;;;;20.22;42.73;99987.16;6303848;22;20350;-83
2023/10/14 07:10:17;;;;;;;5.20;3.15;;;;;;;20.62;42.46;99986.91;6303978;22;20003;-83
2023/10/14 07:12:43;;;;;;;9.32;3.30;;;;;;;20.69;41.76;99999.09;6303379;22;20014;-84
2023/10/14 07:15:15;;;;;;;6.25;2.53;;;;;;;20.58;41.90;99973.66;6303685;22;20067;-83
2023/10/14 07:17:42;;;;;;;13.32;3.85;;;;;;;20.49;41.48;99942.00;6304299;22;19999;-85
2023/10/14 07:20:12;;;;;;;9.90;3.28;;;;;;;20.87;42.26;99983.84;6275856;22;20149;-83
2023/10/14 07:22:42;;;;;;;4.75;2.83;;;;;;;21.23;40.70;99998.91;6304137;22;20083;-83
2023/10/14 07:25:10;;;;;;;10.50;3.85;;;;;;;21.23;41.02;99966.72;6303676;22;20007;-84
2023/10/14 07:27:39;;;;;;;9.20;3.45;;;;;;;21.51;40.70;99960.72;6302023;22;20006;-81
2023/10/14 07:30:15;;;;;;;8.25;4.20;;;;;;;21.85;39.75;99982.09;6303261;22;20007;-81
2023/10/14 07:32:45;;;;;;;9.98;4.15;;;;;;;22.26;39.43;99986.84;6304132;22;20014;-82
2023/10/14 07:35:15;;;;;;;7.90;4.15;;;;;;;21.95;39.05;99976.09;6302925;22;20003;-82
2023/10/14 07:37:45;;;;;;;8.07;4.20;;;;;;;22.49;39.29;99981.03;6303664;22;20056;-81
2023/10/14 07:40:34;;;;;;;8.55;4.05;;;;;;;22.47;38.34;99971.31;6303463;22;20072;-82
2023/10/14 07:43:13;;;;;;;8.77;2.78;;;;;;;22.48;37.44;99956.94;6302728;22;20003;-81
2023/10/14 07:45:43;;;;;;;14.23;3.45;;;;;;;22.76;38.02;99979.47;6303116;22;20493;-81
2023/10/14 07:48:10;;;;;;;10.85;3.30;;;;;;;22.84;36.81;99943.03;6303147;22;20003;-81
2023/10/14 07:50:47;;;;;;;6.45;2.55;;;;;;;23.12;36.72;99945.88;6276326;22;20413;-81
2023/10/14 07:53:15;;;;;;;7.47;3.00;;;;;;;23.13;36.41;99934.16;6302927;22;20003;-81
2023/10/14 07:55:41;;;;;;;7.72;2.97;;;;;;;23.75;35.53;100012.69;6303231;22;20458;-82
2023/10/14 07:58:10;;;;;;;14.52;3.13;;;;;;;23.82;35.46;99940.44;6302720;22;20003;-82
2023/10/14 08:00:49;;;;;;;21.20;2.38;;;;;;;23.52;34.84;99971.09;6302899;22;20038;-81
2023/10/14 08:03:20;;;;;;;7.20;2.38;;;;;;;23.32;34.46;99953.53;6302775;22;20090;-82
2023/10/14 08:05:51;;;;;;;7.65;3.00;;;;;;;23.47;35.00;99954.38;6301134;22;20003;-82
2023/10/14 08:08:19;;;;;;;9.60;3.55;;;;;;;24.26;33.94;99966.25;6303127;22;19999;-81
2023/10/14 08:10:49;;;;;;;5.53;3.00;;;;;;;24.24;33.77;99953.88;6305812;22;20003;-80
2023/10/14 08:13:21;;;;;;;13.15;7.53;;;;;;;24.34;33.15;99906.44;6304499;22;20035;-81
2023/10/14 08:15:50;;;;;;;9.40;5.88;;;;;;;24.59;33.21;99915.53;6305175;22;20063;-82
2023/10/14 08:18:17;;;;;;;9.63;3.20;;;;;;;24.83;33.73;99964.22;6304360;22;20456;-82
2023/10/14 08:20:43;;;;;;;10.52;2.83;;;;;;;24.48;34.67;99900.97;6305421;22;20010;-83
2023/10/14 08:23:10;;;;;;;26.27;4.00;;;;;;;24.86;32.80;99914.59;6304890;22;20011;-82
2023/10/14 08:25:41;;;;;;;9.05;2.88;;;;;;;25.14;32.52;99933.19;6302353;22;20003;-84
2023/10/14 08:28:07;;;;;;;10.60;3.50;;;;;;;24.72;33.79;99897.53;6302745;22;19999;-84
2023/10/14 08:30:45;;;;;;;28.90;4.28;;;;;;;24.99;32.64;99921.69;6304025;22;20069;-84
2023/10/14 08:33:14;;;;;;;11.10;3.95;;;;;;;24.97;32.07;99902.03;6302517;22;20480;-87
2023/10/14 08:35:42;;;;;;;11.77;3.65;;;;;;;25.06;32.74;99905.91;6275667;22;20334;-86
2023/10/14 08:38:14;;;;;;;9.48;3.47;;;;;;;25.33;32.07;99940.00;6300837;22;20011;-87
2023/10/14 08:40:52;;;;;;;9.38;3.20;;;;;;;24.99;33.87;99926.22;6300240;22;20449;-86
2023/10/14 08:43:23;;;;;;;9.07;3.45;;;;;;;25.22;31.91;99953.38;6300678;22;20397;-85
2023/10/14 08:45:49;;;;;;;6.88;3.53;;;;;;;24.75;32.07;99902.72;6302737;22;20007;-85
2023/10/14 08:48:19;;;;;;;10.23;4.85;;;;;;;25.06;32.51;99918.56;6303060;22;20086;-88
2023/10/14 08:50:47;;;;;;;8.68;3.50;;;;;;;24.43;32.20;99875.28;6303205;22;20007;-85
2023/10/14 08:53:15;;;;;;;6.97;2.92;;;;;;;24.64;32.07;99875.66;6302836;22;20003;-84
2023/10/14 08:55:44;;;;;;;7.00;3.03;;;;;;;24.58;32.90;99859.91;6304128;22;20011;-86
2023/10/14 08:58:17;;;;;;;5.53;3.00;;;;;;;24.67;32.81;99880.81;6303392;22;20476;-87
2023/10/14 09:00:51;;;;;;;5.60;2.58;;;;;;;24.88;32.53;99877.56;6304244;22;20082;-87
2023/10/14 09:03:17;;;;;;;4.13;2.63;;;;;;;24.62;32.01;99899.16;6303493;22;20014;-86
2023/10/14 09:05:46;;;;;;;7.47;2.50;;;;;;;24.40;32.53;99865.56;6302201;22;20353;-87
2023/10/14 09:08:19;;;;;;;10.20;3.70;;;;;;;24.59;32.76;99883.19;6303589;22;20386;-89
2023/10/14 09:11:06;;;;;;;8.15;2.33;;;;;;;24.61;32.55;99883.97;6277999;22;20103;-89
2023/10/14 09:13:41;;;;;;;5.57;2.85;;;;;;;24.81;32.38;99921.16;6304856;22;20003;-90
2023/10/14 09:16:34;;;;;;;6.68;2.67;;;;;;;24.39;32.20;99850.38;6305077;22;20400;-93
2023/10/14 09:19:07;;;;;;;3.85;2.88;;;;;;;24.59;32.36;99853.53;6277899;22;20094;-91
2023/10/14 09:22:13;;;;;;;4.82;2.70;;;;;;;25.22;32.12;99912.91;6276894;22;20029;-92
2023/10/14 09:24:42;;;;;;;3.58;2.25;;;;;;;24.91;32.14;99862.00;6304840;22;20003;-85
2023/10/14 09:44:55;;;;;;;4.75;2.53;;;;;;;25.31;32.00;99864.53;6149776;23;20546;-92
2023/10/14 09:47:25;;;;;;;4.03;2.28;;;;;;;24.77;32.20;99765.91;6149241;23;20013;-89
2023/10/14 09:49:58;;;;;;;10.25;3.10;;;;;;;24.98;32.13;99833.63;6149244;23;20344;-90
2023/10/14 09:52:25;;;;;;;4.25;2.05;;;;;;;24.99;32.23;99797.56;6148641;23;20037;-87
2023/10/14 09:54:52;;;;;;;5.18;2.83;;;;;;;24.83;32.59;99762.75;6148973;23;20547;-86
2023/10/14 09:57:29;;;;;;;5.30;2.72;;;;;;;24.91;31.74;99750.53;6148360;23;20444;-88
2023/10/14 10:00:12;;;;;;;8.10;2.83;;;;;;;25.17;31.90;99744.06;6124129;23;20064;-88
2023/10/14 10:02:51;;;;;;;4.60;2.72;;;;;;;25.10;31.94;99731.13;6148879;23;20013;-88
2023/10/14 10:05:38;;;;;;;7.40;2.13;;;;;;;25.52;31.43;99762.16;6097215;23;20041;-88
2023/10/14 10:08:17;;;;;;;3.78;2.10;;;;;;;26.02;31.18;99807.88;6119087;23;20006;-87
2023/10/14 10:10:51;;;;;;;5.32;2.72;;;;;;;25.21;31.75;99739.31;6146622;23;20537;-85
2023/10/14 10:13:28;;;;;;;9.60;2.85;;;;;;;25.26;31.43;99715.50;6148475;23;20013;-86
2023/10/14 10:16:40;;;;;;;3.42;1.77;;;;;;;25.63;31.41;99715.44;6196364;23;20441;-88
2023/10/14 10:19:10;;;;;;;4.18;2.38;;;;;;;25.73;31.12;99747.97;6207218;23;20088;-85
2023/10/14 10:21:40;;;;;;;4.80;2.13;;;;;;;25.42;31.18;99714.38;6235552;23;20494;-84
2023/10/14 10:24:17;;;;;;;4.75;2.47;;;;;;;25.98;31.35;99787.50;6238630;23;20015;-84
2023/10/14 10:27:14;;;;;;;12.63;2.53;;;;;;;26.15;31.35;99780.78;6239415;23;20062;-85
2023/10/14 10:30:37;;;;;;;9.38;3.08;;;;;;;25.90;30.87;99698.03;6239341;23;20091;-88
2023/10/14 10:33:11;;;;;;;6.70;2.83;;;;;;;25.90;31.24;99701.59;6236571;23;20023;-83
2023/10/14 10:35:56;;;;;;;5.10;2.88;;;;;;;25.94;31.96;99698.66;6209884;23;20004;-86
2023/10/14 10:38:22;;;;;;;3.78;1.90;;;;;;;26.25;31.38;99730.38;6236618;23;20070;-86
2023/10/14 10:41:29;;;;;;;15.43;2.83;;;;;;;26.32;30.91;99738.88;6236704;23;20012;-83
2023/10/14 10:44:11;;;;;;;12.13;2.38;;;;;;;26.37;30.16;99738.50;6236517;23;20012;-87
2023/10/14 10:46:50;;;;;;;12.35;2.80;;;;;;;26.04;30.83;99654.59;6237707;23;20431;-89
2023/10/14 10:49:59;;;;;;;4.57;2.33;;;;;;;25.88;31.24;99673.84;6246023;22;20406;-85
2023/10/14 10:52:26;;;;;;;9.20;1.95;;;;;;;26.00;30.31;99642.31;6294587;22;20007;-89
2023/10/14 10:54:53;;;;;;;8.05;2.20;;;;;;;26.39;30.53;99674.34;6275621;22;20003;-85
2023/10/14 10:57:22;;;;;;;5.22;2.50;;;;;;;26.36;30.23;99652.97;6303791;22;20076;-85
2023/10/14 10:59:47;;;;;;;2.95;1.77;;;;;;;26.39;30.42;99650.00;6303035;22;20008;-84
2023/10/14 11:02:15;;;;;;;7.38;2.38;;;;;;;26.65;29.96;99709.19;6304282;22;20133;-84
2023/10/14 11:04:48;;;;;;;5.00;2.45;;;;;;;26.37;29.86;99641.16;6304107;22;20007;-87
2023/10/14 11:07:14;;;;;;;2.80;1.60;;;;;;;26.18;29.14;99596.72;6303838;22;20350;-86
2023/10/14 11:09:42;;;;;;;3.25;1.90;;;;;;;26.48;29.56;99630.34;6302017;22;19999;-88
2023/10/14 11:12:09;;;;;;;6.93;2.58;;;;;;;26.83;29.10;99628.41;6301353;22;20327;-85
2023/10/14 11:14:40;;;;;;;3.58;2.10;;;;;;;26.80;29.14;99611.44;6302475;22;20007;-84
2023/10/14 11:17:06;;;;;;;3.53;1.63;;;;;;;27.05;28.61;99631.03;6301771;22;20029;-84
2023/10/14 11:19:32;;;;;;;4.85;2.53;;;;;;;26.59;29.22;99594.28;6302335;22;20007;-85
2023/10/14 11:22:00;;;;;;;8.63;2.63;;;;;;;26.90;28.63;99592.56;6301790;22;20433;-85
2023/10/14 11:24:26;;;;;;;3.67;1.83;;;;;;;26.91;28.63;99618.66;6302972;22;20003;-84
2023/10/14 11:26:53;;;;;;;6.13;2.33;;;;;;;26.58;28.15;99565.50;6297700;22;20404;-83
2023/10/14 11:29:25;;;;;;;6.50;2.45;;;;;;;26.49;28.63;99583.34;6303620;22;20085;-84
2023/10/14 11:31:58;;;;;;;5.05;2.47;;;;;;;26.73;28.94;99579.63;6303646;22;20050;-83
2023/10/14 11:34:24;;;;;;;5.63;2.13;;;;;;;27.02;28.48;99595.22;6303192;22;20015;-83
2023/10/14 11:36:50;;;;;;;5.82;2.10;;;;;;;26.88;28.03;99577.44;6303898;22;20453;-85
2023/10/14 11:39:18;;;;;;;5.20;2.17;;;;;;;27.09;28.97;99591.84;6303286;22;20003;-83
2023/10/14 11:41:50;;;;;;;4.15;1.88;;;;;;;27.03;27.43;99564.47;6303730;22;20117;-84
2023/10/14 11:44:18;;;;;;;3.80;1.70;;;;;;;26.94;27.69;99534.50;6303607;22;20502;-85
2023/10/14 11:46:45;;;;;;;9.57;2.60;;;;;;;27.20;27.69;99542.19;6276589;22;20011;-84
2023/10/14 11:49:12;;;;;;;3.83;1.98;;;;;;;27.36;27.85;99582.41;6303144;22;20087;-84
2023/10/14 11:51:44;;;;;;;4.65;1.80;;;;;;;26.93;27.57;99516.53;6302783;22;20450;-84
2023/10/14 11:54:38;;;;;;;11.30;2.33;;;;;;;27.12;27.04;99512.25;6300165;22;20003;-88
2023/10/14 11:57:15;;;;;;;5.07;1.73;;;;;;;27.29;27.12;99554.94;6296686;22;20011;-88
2023/10/14 11:59:41;;;;;;;5.22;1.60;;;;;;;26.77;27.71;99513.44;6301138;22;20153;-88
2023/10/14 12:13:24;;;;;;;11.00;2.92;;;;;;;27.19;26.67;99517.97;6205739;23;20031;-89
2023/10/14 12:22:57;;;;;;;3.05;1.70;;;;;;;27.32;26.71;99495.13;6130172;23;20064;-89
2023/10/14 12:25:43;;;;;;;6.55;2.10;;;;;;;27.68;26.66;99557.88;6146555;23;20010;-91
2023/10/14 12:28:25;;;;;;;3.63;1.83;;;;;;;27.43;26.59;99505.00;6137870;23;20720;-86
2023/10/14 12:30:58;;;;;;;3.88;1.23;;;;;;;27.27;26.66;99459.47;6143585;23;20124;-86
2023/10/14 12:33:38;;;;;;;7.22;2.15;;;;;;;27.30;26.25;99483.56;6143777;23;20021;-94
2023/10/14 12:43:00;;;;;;;5.93;1.60;;;;;;;27.30;26.05;99491.69;5957382;23;20021;-92
2023/10/14 12:45:51;;;;;;;7.10;1.80;;;;;;;27.79;26.19;99542.50;5943886;24;20535;-87
2023/10/14 12:51:43;;;;;;;16.17;1.85;;;;;;;27.23;25.72;99439.06;5945554;24;20093;-93
2023/10/14 13:01:46;;;;;;;;;;;;;;;;;;;;;
2023/10/14 13:04:27;;;;;;;4.65;1.90;;;;;;;27.25;25.97;99438.91;5905019;24;20024;-88
2023/10/14 13:07:15;;;;;;;8.55;1.63;;;;;;;27.22;25.92;99426.53;5918095;24;20097;-88
2023/10/14 13:09:41;;;;;;;7.85;1.83;;;;;;;27.25;25.87;99428.97;5918853;24;20016;-87
2023/10/14 13:12:17;;;;;;;2.55;1.20;;;;;;;27.24;26.30;99435.38;5949296;23;20012;-87
2023/10/14 13:14:44;;;;;;;4.35;1.70;;;;;;;27.09;26.38;99412.38;6003448;23;20044;-88
2023/10/14 13:17:10;;;;;;;2.05;1.25;;;;;;;27.38;25.74;99436.88;6047580;23;20382;-90
2023/10/14 13:19:36;;;;;;;3.05;1.67;;;;;;;27.43;25.89;99439.16;6166727;23;20103;-88
2023/10/14 13:22:26;;;;;;;8.35;1.67;;;;;;;27.33;26.07;99396.66;6177600;23;20036;-91
2023/10/14 13:24:51;;;;;;;2.20;1.70;;;;;;;27.63;25.89;99442.78;6177612;23;20443;-89
2023/10/14 13:27:17;;;;;;;3.38;2.15;;;;;;;27.36;25.81;99414.50;6186519;23;20012;-87
2023/10/14 13:29:43;;;;;;;4.15;1.70;;;;;;;27.47;25.89;99427.06;6269623;22;20011;-87
2023/10/14 13:32:14;;;;;;;6.43;1.70;;;;;;;27.35;26.36;99406.50;6282167;22;20068;-89